createdAt,value
2022-09-30T00:01:46.401Z,37.35
2022-09-30T00:08:23.403Z,37.12
2022-09-30T00:14:59.345Z,37.2
2022-09-30T00:21:38.843Z,37.14
2022-09-30T00:28:07.677Z,36.93
2022-09-30T00:34:42.307Z,37.13
2022-09-30T00:41:20.851Z,36.96
2022-09-30T00:48:16.779Z,37.09
2022-09-30T00:55:08.828Z,37.18
2022-09-30T01:02:02.763Z,36.92
2022-09-30T01:08:38.859Z,37.08
2022-09-30T01:15:14.816Z,37.04
2022-09-30T01:22:25.884Z,37.26
2022-09-30T01:29:28.691Z,37.14
2022-09-30T01:36:44.875Z,37.02
2022-09-30T01:44:04.743Z,37.04
2022-09-30T01:51:09.867Z,36.94
2022-09-30T01:58:25.981Z,36.77
2022-09-30T02:05:21.071Z,36.89
2022-09-30T02:12:24.835Z,36.85
2022-09-30T02:19:38.669Z,36.88
2022-09-30T02:26:39.380Z,36.83
2022-09-30T02:33:35.469Z,36.91
2022-09-30T02:40:44.976Z,36.88
2022-09-30T02:47:49.896Z,37.11
2022-09-30T02:55:20.804Z,37.01
2022-09-30T03:02:31.361Z,36.95
2022-09-30T03:09:09.535Z,37.04
2022-09-30T03:16:14.464Z,36.92
2022-09-30T03:23:30.820Z,37.02
2022-09-30T03:30:32.440Z,36.93
2022-09-30T03:37:35.225Z,37.03
2022-09-30T03:44:30.844Z,36.98
2022-09-30T03:51:26.104Z,36.95
2022-09-30T03:58:03.825Z,37
2022-09-30T04:04:41.917Z,37.02
2022-09-30T04:11:06.024Z,37.13
2022-09-30T04:17:34.796Z,36.92
2022-09-30T04:24:17.296Z,36.92
2022-09-30T04:30:49.243Z,36.89
2022-09-30T04:37:15.781Z,36.95
2022-09-30T04:43:45.909Z,36.93
2022-09-30T04:50:15.940Z,36.9
2022-09-30T04:56:43.838Z,36.89
2022-09-30T05:03:15.901Z,36.98
2022-09-30T05:09:51.785Z,36.93
2022-09-30T05:16:25.682Z,36.91
2022-09-30T05:23:02.068Z,36.97
2022-09-30T05:29:29.853Z,36.92
2022-09-30T05:36:11.882Z,36.95
2022-09-30T05:42:46.317Z,37.04
2022-09-30T05:49:12.362Z,36.84
2022-09-30T05:55:39.606Z,36.87
2022-09-30T06:02:13.451Z,36.97
2022-09-30T06:08:41.011Z,36.86
2022-09-30T06:15:13.082Z,35.83
2022-09-30T06:21:47.562Z,35.34
2022-09-30T06:28:10.923Z,34.98
2022-09-30T06:34:56.624Z,35.04
2022-09-30T06:41:23.977Z,34.99
2022-09-30T06:47:59.964Z,35.07
2022-09-30T06:54:29.982Z,35.18
2022-09-30T07:01:04.525Z,35.2
2022-09-30T07:07:44.036Z,35.29
2022-09-30T07:14:10.995Z,35.58
2022-09-30T07:20:43.960Z,35.62
2022-09-30T07:27:23.915Z,35.73
2022-09-30T07:33:56.394Z,35.83
2022-09-30T07:40:27.059Z,35.96
2022-09-30T07:47:06.261Z,35.92
2022-09-30T07:53:40.416Z,35.94
2022-09-30T08:00:41.918Z,35.99
2022-09-30T08:07:04.039Z,35.99
2022-09-30T08:13:38.544Z,36.06
2022-09-30T08:20:20.118Z,36.14
2022-09-30T08:26:55.862Z,36.09
2022-09-30T08:33:27.064Z,36.08
2022-09-30T08:39:56.424Z,36.02
2022-09-30T08:47:02.205Z,36.15
2022-09-30T08:54:09.081Z,36.14
2022-09-30T09:01:09.108Z,36.17
2022-09-30T09:08:14.436Z,36.19
2022-09-30T09:15:26.205Z,36.2
2022-09-30T09:22:39.564Z,36.24
2022-09-30T09:29:21.186Z,36.23
2022-09-30T09:36:11.416Z,36.22
2022-09-30T09:43:29.948Z,36.34
2022-09-30T09:50:36.086Z,36.41
2022-09-30T09:57:25.106Z,36.28
2022-09-30T10:04:11.049Z,36.34
2022-09-30T10:11:07.684Z,36.26
2022-09-30T10:18:03.559Z,36.32
2022-09-30T10:24:48.839Z,36.4
2022-09-30T10:31:44.240Z,36.39
2022-09-30T10:38:35.753Z,36.41
2022-09-30T10:45:42.383Z,36.39
2022-09-30T10:52:43.229Z,36.36
2022-09-30T10:59:52.541Z,36.42
2022-09-30T11:06:52.091Z,36.5
2022-09-30T11:14:04.601Z,36.36
2022-09-30T11:21:18.257Z,36.45
2022-09-30T11:28:23.029Z,36.44
2022-09-30T11:35:29.137Z,36.5
2022-09-30T11:42:32.504Z,36.52
2022-09-30T11:49:31.568Z,36.54
2022-09-30T11:56:37.710Z,36.53
2022-09-30T12:03:40.490Z,36.47
2022-09-30T12:10:51.128Z,36.41
2022-09-30T12:17:52.568Z,36.35
2022-09-30T12:25:04.531Z,36.31
2022-09-30T12:32:06.541Z,36.41
2022-09-30T12:39:14.210Z,36.22
2022-09-30T12:46:15.555Z,36.33
2022-09-30T12:53:22.558Z,36.35
2022-09-30T13:00:22.378Z,36.27
2022-09-30T13:07:24.199Z,36.38
2022-09-30T13:14:26.761Z,36.38
2022-09-30T13:21:41.703Z,36.25
2022-09-30T13:28:30.911Z,36.02
2022-09-30T13:35:20.581Z,35.85
2022-09-30T13:42:26.762Z,35.81
2022-09-30T13:49:44.553Z,35.5
2022-09-30T13:56:53.260Z,35.29
2022-09-30T14:04:07.467Z,35.27
2022-09-30T14:11:22.474Z,35.3
2022-09-30T14:18:23.611Z,35.37
2022-09-30T14:25:16.734Z,35.28
2022-09-30T14:32:18.579Z,35.12
2022-09-30T14:39:16.569Z,35.28
2022-09-30T14:46:13.131Z,35.04
2022-09-30T14:53:22.565Z,35.33
2022-09-30T15:00:20.043Z,35.17
2022-09-30T15:07:08.916Z,35.06
2022-09-30T15:13:51.393Z,34.92
2022-09-30T15:20:40.604Z,35.13
2022-09-30T15:27:19.263Z,34.98
2022-09-30T15:34:25.011Z,35.02
2022-09-30T15:41:00.612Z,35.21
2022-09-30T15:47:49.611Z,35.38
2022-09-30T15:54:52.610Z,35.61
2022-09-30T16:01:52.638Z,35.8
2022-09-30T16:08:34.807Z,35.96
2022-09-30T16:15:28.614Z,36.04
2022-09-30T16:22:21.528Z,36.12
2022-09-30T16:29:11.308Z,36.18
2022-09-30T16:35:56.168Z,36.12
2022-09-30T16:42:38.477Z,36.24
2022-09-30T16:49:08.641Z,36.31
2022-09-30T16:55:50.163Z,36.26
2022-09-30T17:02:32.360Z,36.39
2022-09-30T17:09:16.674Z,36.44
2022-09-30T17:15:49.506Z,36.52
2022-09-30T17:22:24.146Z,36.48
2022-09-30T17:28:57.637Z,36.62
2022-09-30T17:35:32.113Z,36.62
2022-09-30T17:42:01.222Z,36.6
2022-09-30T17:48:40.340Z,36.58
2022-09-30T17:55:13.938Z,36.65
2022-09-30T18:01:45.609Z,36.65
2022-09-30T18:08:22.459Z,36.64
2022-09-30T18:14:44.194Z,36.6
2022-09-30T18:21:14.012Z,36.73
2022-09-30T18:27:58.468Z,36.52
2022-09-30T18:34:33.237Z,36.55
2022-09-30T18:41:02.465Z,36.54
2022-09-30T18:47:46.868Z,36.56
2022-09-30T18:54:28.301Z,36.43
2022-09-30T19:01:03.131Z,36.48
2022-09-30T19:07:43.526Z,36.36
2022-09-30T19:14:28.700Z,36.59
2022-09-30T19:21:12.163Z,36.32
2022-09-30T19:27:39.920Z,36.47
2022-09-30T19:34:30.179Z,36.37
2022-09-30T19:41:07.186Z,36.77
2022-09-30T19:47:48.773Z,36.83
2022-09-30T19:54:41.060Z,36.92
2022-09-30T20:01:27.937Z,36.9
2022-09-30T20:07:57.694Z,36.78
2022-09-30T20:14:32.751Z,36.85
2022-09-30T20:21:11.716Z,36.88
2022-09-30T20:27:41.688Z,36.85
2022-09-30T20:34:07.232Z,36.83
2022-09-30T20:40:38.352Z,36.96
2022-09-30T20:47:11.412Z,36.85
2022-09-30T20:53:54.289Z,36.83
2022-09-30T21:00:26.767Z,36.74
2022-09-30T21:07:07.461Z,36.85
2022-09-30T21:13:36.312Z,36.84
2022-09-30T21:20:09.101Z,36.79
2022-09-30T21:26:50.930Z,36.76
2022-09-30T21:33:21.652Z,36.75
2022-09-30T21:39:57.554Z,36.76
2022-09-30T21:46:36.834Z,36.7
2022-09-30T21:53:13.589Z,36.71
2022-09-30T21:59:57.481Z,36.68
2022-09-30T22:06:28.274Z,36.75
2022-09-30T22:12:55.358Z,36.75
2022-09-30T22:19:34.725Z,36.72
2022-09-30T22:26:02.733Z,36.63
2022-09-30T22:32:38.644Z,36.7
2022-09-30T22:39:10.598Z,36.47
2022-09-30T22:45:46.556Z,36.58
2022-09-30T22:52:21.150Z,36.46
2022-09-30T22:58:56.005Z,36.38
2022-09-30T23:05:24.851Z,36.46
2022-09-30T23:12:02.555Z,36.43
2022-09-30T23:18:34.290Z,36.41
2022-09-30T23:25:13.511Z,36.61
2022-09-30T23:31:49.622Z,36.66
2022-09-30T23:38:24.845Z,36.66
2022-09-30T23:44:50.596Z,36.49
2022-09-30T23:51:19.549Z,36.56
2022-09-30T23:57:53.856Z,36.56
